Time;durP1;ratioP1;P1;durP2;ratioP2;P2;SDS_P1;SDS_P2;PMS_P1;PMS_P2;Temp;Humidity;BMP_temperature;BMP_pressure;BME280_temperature;BME280_humidity;BME280_pressure;Samples;Min_cycle;Max_cycle;Signal;HPM_P1;HPM_P2
2022/12/19 13:39:52;;;;;;;27.80;18.50;;;0.50;99.90;;;;;;5081316;28;20438;-77
2022/12/19 13:45:52;;;;;;;39.13;20.10;;;0.40;99.90;;;;;;5045242;28;20084;-77
2022/12/19 13:48:34;;;;;;;32.97;20.13;;;0.40;99.90;;;;;;5044797;28;20408;-77
2022/12/19 13:51:08;;;;;;;42.88;22.80;;;0.50;99.90;;;;;;5027812;28;20082;-77
2022/12/19 13:53:36;;;;;;;40.25;20.90;;;0.50;99.90;;;;;;5030500;28;20667;-77
2022/12/19 13:56:11;;;;;;;51.38;25.90;;;0.50;99.90;;;;;;5007308;28;20049;-77
2022/12/19 13:58:47;;;;;;;34.35;19.80;;;0.50;99.90;;;;;;5023071;28;20120;-77
2022/12/19 14:01:25;;;;;;;34.33;21.50;;;0.50;99.90;;;;;;5026243;28;20041;-77
2022/12/19 14:03:56;;;;;;;29.58;18.10;;;0.40;99.90;;;;;;5044824;28;20053;-78
2022/12/19 14:06:43;;;;;;;37.13;23.52;;;0.30;99.90;;;;;;5029281;28;20049;-78
2022/12/19 14:09:26;;;;;;;39.22;21.63;;;0.10;99.90;;;;;;5025496;28;20045;-77
2022/12/19 14:15:34;;;;;;;34.55;19.85;;;0.20;99.90;;;;;;5033679;28;20378;-77
2022/12/19 14:18:15;;;;;;;38.15;24.20;;;-0.10;99.90;;;;;;5044396;28;20049;-77
2022/12/19 14:21:16;;;;;;;32.83;18.13;;;-0.10;99.90;;;;;;5011910;28;20740;-78
2022/12/19 14:24:31;;;;;;;28.35;19.33;;;-0.20;99.90;;;;;;5041904;28;20040;-78
2022/12/19 14:27:04;;;;;;;36.05;17.17;;;-0.40;99.90;;;;;;5043598;28;20053;-78
2022/12/19 14:29:53;;;;;;;38.53;21.63;;;-0.40;99.90;;;;;;5026227;28;20064;-78
2022/12/19 14:32:45;;;;;;;40.85;24.08;;;-0.50;99.90;;;;;;5026178;28;20041;-76
2022/12/19 14:36:05;;;;;;;36.25;23.35;;;-0.50;99.90;;;;;;5044084;28;20053;-78
2022/12/19 14:38:48;;;;;;;41.17;22.10;;;-0.50;99.90;;;;;;4996730;28;20046;-78
2022/12/19 14:44:53;;;;;;;38.17;18.63;;;-0.50;99.90;;;;;;5024487;28;20052;-78
2022/12/19 14:47:41;;;;;;;31.85;18.30;;;-0.70;99.90;;;;;;5006594;28;20077;-79
2022/12/19 14:50:37;;;;;;;26.83;16.90;;;-0.70;99.90;;;;;;5014390;28;20065;-79
2022/12/19 14:53:24;;;;;;;35.17;18.38;;;-0.70;99.90;;;;;;4987760;28;20038;-78
2022/12/19 14:56:16;;;;;;;28.08;18.98;;;-0.70;99.90;;;;;;4979406;28;20046;-79
2022/12/19 14:59:05;;;;;;;32.63;17.40;;;-0.70;99.90;;;;;;5011573;28;20049;-78
2022/12/19 15:01:35;;;;;;;28.02;18.55;;;-0.80;99.90;;;;;;5022850;28;20600;-78
2022/12/19 15:04:16;;;;;;;36.50;21.05;;;-0.80;99.90;;;;;;5031543;28;20044;-78
2022/12/19 15:07:07;;;;;;;32.35;20.55;;;-0.80;99.90;;;;;;5012184;28;20049;-78
2022/12/19 15:09:50;;;;;;;30.55;18.65;;;-1.00;99.90;;;;;;4999593;28;20049;-78
2022/12/19 15:16:05;;;;;;;25.73;16.42;;;-1.40;99.90;;;;;;5049957;28;20041;-78
2022/12/19 15:18:33;;;;;;;26.90;16.13;;;-1.50;99.90;;;;;;5039508;28;20427;-77
2022/12/19 15:21:03;;;;;;;23.27;16.48;;;-1.70;99.90;;;;;;5011591;28;20690;-77
2022/12/19 15:23:31;;;;;;;32.92;19.65;;;-1.90;99.90;;;;;;4995107;28;20061;-77
2022/12/19 15:26:04;;;;;;;40.63;20.70;;;-1.90;99.90;;;;;;5011526;28;20074;-77
2022/12/19 15:28:55;;;;;;;29.75;17.10;;;-1.90;99.90;;;;;;5015432;28;20049;-77
2022/12/19 15:31:37;;;;;;;31.63;18.83;;;-2.00;99.90;;;;;;5008305;28;20049;-78
2022/12/19 15:34:22;;;;;;;31.40;18.00;;;-1.90;99.90;;;;;;5008210;28;20057;-77
2022/12/19 15:37:12;;;;;;;36.75;18.33;;;-1.90;99.90;;;;;;5022641;28;20050;-77
2022/12/19 15:39:40;;;;;;;32.90;17.65;;;-1.80;99.90;;;;;;5006410;28;20057;-78
2022/12/19 15:42:24;;;;;;;37.83;20.42;;;-1.90;99.90;;;;;;5007023;28;20055;-77
2022/12/19 15:44:56;;;;;;;30.63;17.00;;;-1.90;99.90;;;;;;5020497;28;20052;-77
2022/12/19 15:47:35;;;;;;;33.60;17.13;;;-1.90;99.90;;;;;;4993087;28;20057;-77
2022/12/19 15:50:31;;;;;;;26.40;16.40;;;-1.90;99.90;;;;;;5018143;28;20049;-77
2022/12/19 15:53:00;;;;;;;28.20;15.63;;;-1.90;99.90;;;;;;5003701;28;20050;-77
2022/12/19 15:55:29;;;;;;;31.90;19.73;;;-1.90;99.90;;;;;;4991476;28;20632;-77
2022/12/19 15:58:04;;;;;;;25.50;17.23;;;-1.90;99.90;;;;;;5011124;28;20054;-77
2022/12/19 16:00:35;;;;;;;30.80;15.43;;;-1.90;99.90;;;;;;5026075;28;20045;-77
2022/12/19 16:03:03;;;;;;;26.88;16.35;;;-1.80;99.90;;;;;;5027902;28;20367;-77
2022/12/19 16:05:51;;;;;;;25.42;15.73;;;-1.70;99.90;;;;;;5028069;28;20472;-77
2022/12/19 16:08:24;;;;;;;29.58;17.60;;;-1.70;99.90;;;;;;5025988;28;20068;-77
2022/12/19 16:10:54;;;;;;;22.75;14.38;;;-1.80;99.90;;;;;;4979013;28;20056;-77
2022/12/19 16:13:32;;;;;;;23.27;13.77;;;-1.90;99.90;;;;;;5017682;28;20046;-77
2022/12/19 16:16:03;;;;;;;23.65;16.02;;;-1.90;99.90;;;;;;4990131;28;20052;-77
2022/12/19 16:18:41;;;;;;;26.55;13.98;;;-1.80;99.90;;;;;;5028147;28;20509;-77
2022/12/19 16:21:18;;;;;;;20.88;15.25;;;-1.80;99.90;;;;;;5010517;28;20058;-77
2022/12/19 16:23:46;;;;;;;29.80;14.75;;;-1.80;99.90;;;;;;5023169;28;20049;-77
2022/12/19 16:26:27;;;;;;;24.13;16.42;;;-1.90;99.90;;;;;;5005521;28;20057;-77
2022/12/19 16:28:55;;;;;;;21.70;13.18;;;-2.00;99.90;;;;;;5027587;28;20713;-76
2022/12/19 16:31:24;;;;;;;28.38;15.65;;;-2.00;99.90;;;;;;5028238;28;20045;-76
2022/12/19 16:33:52;;;;;;;32.30;15.43;;;-2.00;99.90;;;;;;5009525;28;20041;-77
2022/12/19 16:36:21;;;;;;;21.27;14.23;;;-1.90;99.90;;;;;;4988393;28;20492;-77
2022/12/19 16:38:49;;;;;;;26.67;15.75;;;-1.90;99.90;;;;;;5026389;28;20064;-77
2022/12/19 16:41:24;;;;;;;25.77;17.92;;;-1.80;99.90;;;;;;5010067;28;20048;-77
2022/12/19 16:43:51;;;;;;;19.23;13.68;;;-1.80;99.90;;;;;;5022999;28;20052;-77
2022/12/19 16:46:22;;;;;;;27.08;13.88;;;-1.70;99.90;;;;;;5025425;28;20056;-77
2022/12/19 16:48:50;;;;;;;25.17;16.80;;;-1.70;99.90;;;;;;5017707;28;20037;-77
2022/12/19 16:51:26;;;;;;;26.42;17.23;;;-1.90;99.90;;;;;;5029003;28;21662;-77
2022/12/19 16:53:57;;;;;;;13.95;11.07;;;-2.20;99.90;;;;;;5024638;28;20251;-77
2022/12/19 16:56:55;;;;;;;27.70;14.50;;;-2.30;99.90;;;;;;5028250;28;20757;-77
2022/12/19 16:59:40;;;;;;;18.48;12.45;;;-2.50;99.90;;;;;;5008254;28;20052;-77
2022/12/19 17:02:50;;;;;;;21.40;14.32;;;-2.50;99.90;;;;;;5027727;28;20041;-77
2022/12/19 17:05:24;;;;;;;21.35;14.45;;;-2.40;99.90;;;;;;4927479;29;20479;-77
2022/12/19 17:07:52;;;;;;;23.92;14.93;;;-2.30;99.90;;;;;;5015512;28;20057;-77
2022/12/19 17:10:26;;;;;;;27.45;16.15;;;-2.30;99.90;;;;;;5027231;28;20484;-77
2022/12/19 17:12:55;;;;;;;28.55;15.13;;;-2.20;99.90;;;;;;5028032;28;20041;-77
2022/12/19 17:15:23;;;;;;;27.27;14.25;;;-2.10;99.90;;;;;;5009181;28;20388;-77
2022/12/19 17:17:52;;;;;;;24.75;14.43;;;-2.10;99.90;;;;;;5007392;28;20037;-77
2022/12/19 17:20:23;;;;;;;27.13;14.73;;;-2.10;99.90;;;;;;5024694;28;20056;-77
2022/12/19 17:22:52;;;;;;;20.73;16.30;;;-2.10;99.90;;;;;;5015309;28;20112;-77
2022/12/19 17:25:27;;;;;;;25.90;14.48;;;-2.10;99.90;;;;;;4987601;28;20041;-77
2022/12/19 17:27:56;;;;;;;22.42;15.02;;;-2.20;99.90;;;;;;5027248;28;20065;-77
2022/12/19 17:30:23;;;;;;;23.35;13.48;;;-2.30;99.90;;;;;;5007467;28;20045;-77
2022/12/19 17:32:53;;;;;;;30.55;16.67;;;-2.50;99.90;;;;;;5006905;28;20632;-77
2022/12/19 17:35:25;;;;;;;22.17;12.88;;;-2.60;99.90;;;;;;5009193;28;20046;-77
2022/12/19 17:37:56;;;;;;;28.27;16.40;;;-2.50;99.90;;;;;;5009198;28;20054;-77
2022/12/19 17:40:28;;;;;;;22.65;12.90;;;-2.50;99.90;;;;;;5026379;28;20057;-77
2022/12/19 17:42:56;;;;;;;32.15;13.80;;;-2.50;99.90;;;;;;5027577;28;20401;-77
2022/12/19 17:45:27;;;;;;;32.83;14.38;;;-2.50;99.90;;;;;;5027113;28;20393;-77
2022/12/19 17:47:59;;;;;;;20.75;13.52;;;-2.50;99.90;;;;;;5027606;28;20420;-77
2022/12/19 17:50:36;;;;;;;21.65;12.40;;;-2.60;99.90;;;;;;5028264;28;20045;-77
2022/12/19 17:53:04;;;;;;;24.52;13.18;;;-2.70;99.90;;;;;;5008421;28;20057;-77
2022/12/19 17:55:32;;;;;;;27.40;15.23;;;-2.60;99.90;;;;;;5028085;28;20049;-77
2022/12/19 17:57:59;;;;;;;25.13;13.93;;;-2.60;99.90;;;;;;5009904;28;20045;-77
2022/12/19 18:00:30;;;;;;;25.67;13.95;;;-2.50;99.90;;;;;;5009227;28;20421;-77
2022/12/19 18:03:03;;;;;;;23.30;15.02;;;-2.60;99.90;;;;;;5010373;28;20421;-77
2022/12/19 18:05:34;;;;;;;23.50;13.93;;;-2.70;99.90;;;;;;5025666;28;20239;-77
2022/12/19 18:08:05;;;;;;;16.55;11.27;;;-2.80;99.90;;;;;;5025909;28;20270;-77
2022/12/19 18:10:33;;;;;;;24.50;12.95;;;-2.90;99.90;;;;;;5010143;28;20050;-77
2022/12/19 18:13:00;;;;;;;19.98;13.55;;;-2.90;99.90;;;;;;5011246;28;20065;-77
2022/12/19 18:15:28;;;;;;;21.85;14.98;;;-2.90;99.90;;;;;;4993997;28;20057;-77
2022/12/19 18:17:59;;;;;;;23.90;15.95;;;-2.80;99.90;;;;;;5026820;28;20049;-77
2022/12/19 18:20:31;;;;;;;25.15;16.38;;;-2.70;99.90;;;;;;5009486;28;20064;-77
2022/12/19 18:23:00;;;;;;;17.40;11.70;;;-2.70;99.90;;;;;;5009326;28;20053;-77
2022/12/19 18:25:31;;;;;;;27.05;15.68;;;-2.70;99.90;;;;;;5002253;28;20048;-77
2022/12/19 18:27:59;;;;;;;33.35;16.70;;;-2.70;99.90;;;;;;5013563;28;20432;-77
2022/12/19 18:30:26;;;;;;;20.05;12.13;;;-2.70;99.90;;;;;;5031747;28;20675;-77
2022/12/19 18:32:56;;;;;;;22.20;13.18;;;-2.70;99.90;;;;;;5013521;28;20053;-77
2022/12/19 18:35:33;;;;;;;25.90;17.08;;;-2.60;99.90;;;;;;5014536;28;20048;-77
2022/12/19 18:38:07;;;;;;;26.67;15.43;;;-2.60;99.90;;;;;;5011965;28;20053;-77
2022/12/19 18:40:34;;;;;;;;;;;-2.50;99.90;;;;;;5009674;28;20041;-77
2022/12/19 18:43:02;;;;;;;21.58;9.95;;;-2.60;99.90;;;;;;4977672;28;19952;-77
2022/12/19 18:45:36;;;;;;;21.15;13.77;;;-2.70;99.90;;;;;;5005456;28;20051;-77
2022/12/19 18:48:07;;;;;;;22.10;13.68;;;-2.60;99.90;;;;;;5030649;28;20440;-77
2022/12/19 18:50:34;;;;;;;22.52;15.32;;;-2.60;99.90;;;;;;5013162;28;20197;-77
2022/12/19 18:53:10;;;;;;;22.00;13.75;;;-2.60;99.90;;;;;;5020806;28;20049;-77
2022/12/19 18:55:37;;;;;;;23.80;15.77;;;-2.70;99.90;;;;;;5010970;28;20046;-77
2022/12/19 18:58:05;;;;;;;24.27;14.30;;;-2.70;99.90;;;;;;5010818;28;20038;-77
2022/12/19 19:00:34;;;;;;;26.52;18.40;;;-2.80;99.90;;;;;;4992988;28;20049;-77
2022/12/19 19:03:05;;;;;;;32.58;16.90;;;-2.70;99.90;;;;;;5030568;28;20076;-77
2022/12/19 19:05:37;;;;;;;18.98;12.90;;;-2.70;99.90;;;;;;5031969;28;20041;-77
2022/12/19 19:08:17;;;;;;;24.20;13.73;;;-2.70;99.90;;;;;;5027490;28;20504;-77
2022/12/19 19:10:52;;;;;;;18.48;11.70;;;-2.70;99.90;;;;;;5011475;28;20057;-77
2022/12/19 19:13:23;;;;;;;22.63;13.60;;;-2.80;99.90;;;;;;5029567;28;20046;-77
2022/12/19 19:15:58;;;;;;;20.35;15.05;;;-2.80;99.90;;;;;;5030629;28;20041;-77
2022/12/19 19:18:40;;;;;;;20.83;15.90;;;-2.80;99.90;;;;;;5012769;28;20064;-77
2022/12/19 19:21:11;;;;;;;20.58;13.50;;;-2.90;99.90;;;;;;4994883;28;20048;-77
2022/12/19 19:23:46;;;;;;;16.88;12.45;;;-3.00;99.90;;;;;;5028657;28;20057;-77
2022/12/19 19:26:14;;;;;;;22.35;13.40;;;-3.00;99.90;;;;;;4994672;28;20428;-77
2022/12/19 19:28:42;;;;;;;22.92;14.50;;;-3.00;99.90;;;;;;5030345;28;20052;-77
2022/12/19 19:31:25;;;;;;;20.95;12.85;;;-3.00;99.90;;;;;;5030091;28;20060;-77
2022/12/19 19:34:02;;;;;;;23.08;14.73;;;-3.00;99.90;;;;;;4996188;28;20053;-77
2022/12/19 19:36:34;;;;;;;23.35;16.35;;;-3.10;99.90;;;;;;5029349;28;20048;-77
2022/12/19 19:39:04;;;;;;;29.23;16.88;;;-3.10;99.90;;;;;;5017138;28;20185;-77
2022/12/19 19:41:33;;;;;;;29.50;17.63;;;-3.10;99.90;;;;;;5010263;28;20046;-77
2022/12/19 19:44:01;;;;;;;37.40;25.45;;;-2.90;99.90;;;;;;5010110;28;20045;-77
2022/12/19 19:46:29;;;;;;;29.70;16.58;;;-2.80;99.90;;;;;;4992947;28;20061;-77
2022/12/19 19:48:58;;;;;;;28.45;15.45;;;-2.80;99.90;;;;;;5009289;28;20726;-77
2022/12/19 19:51:27;;;;;;;30.63;17.98;;;-2.90;99.90;;;;;;5009798;28;20057;-77
2022/12/19 19:53:55;;;;;;;27.17;16.73;;;-3.00;99.90;;;;;;5008729;28;20057;-77
2022/12/19 19:56:22;;;;;;;28.90;17.50;;;-3.00;99.90;;;;;;4976138;28;20053;-77
2022/12/19 19:58:51;;;;;;;27.27;18.02;;;-3.00;99.90;;;;;;4992992;28;20104;-77
2022/12/19 20:01:20;;;;;;;33.90;20.30;;;-3.00;99.90;;;;;;5009033;28;20049;-77
2022/12/19 20:03:48;;;;;;;37.83;18.20;;;-2.90;99.90;;;;;;4996732;28;20052;-77
2022/12/19 20:06:16;;;;;;;27.80;20.15;;;-3.00;99.90;;;;;;5026121;28;20045;-77
2022/12/19 20:08:45;;;;;;;28.85;16.42;;;-3.10;99.90;;;;;;5018570;28;20068;-77
2022/12/19 20:11:13;;;;;;;32.28;16.50;;;-3.20;99.90;;;;;;5011745;28;20041;-77
2022/12/19 20:13:41;;;;;;;35.38;22.27;;;-3.20;99.90;;;;;;5011736;28;20353;-77
2022/12/19 20:16:11;;;;;;;38.53;20.70;;;-3.20;99.90;;;;;;5028685;28;20043;-77
2022/12/19 20:18:39;;;;;;;34.10;19.92;;;-3.40;99.90;;;;;;5029071;28;20428;-77
2022/12/19 20:21:09;;;;;;;34.45;20.60;;;-3.60;99.90;;;;;;5022210;28;20600;-77
2022/12/19 20:23:42;;;;;;;217.32;34.47;;;-3.70;99.90;;;;;;5046788;28;20064;-79
2022/12/19 20:26:12;;;;;;;164.10;26.20;;;-4.00;99.90;;;;;;5048348;28;20049;-77
2022/12/19 20:28:39;;;;;;;39.80;21.20;;;-4.30;99.90;;;;;;5047549;28;20048;-77
2022/12/19 20:31:19;;;;;;;81.72;22.60;;;-4.30;99.90;;;;;;5049404;28;20060;-76
2022/12/19 20:33:49;;;;;;;170.98;28.25;;;-4.30;99.90;;;;;;5048889;28;20048;-76
2022/12/19 20:36:22;;;;;;;61.78;19.27;;;-4.30;99.90;;;;;;5012161;28;20088;-77
2022/12/19 20:38:50;;;;;;;37.53;16.55;;;-4.10;99.90;;;;;;5008904;28;20425;-77
2022/12/19 20:41:18;;;;;;;23.17;14.52;;;-4.00;99.90;;;;;;5017552;28;20037;-77
2022/12/19 20:43:47;;;;;;;31.95;19.30;;;-4.00;99.90;;;;;;5009874;28;20054;-77
2022/12/19 20:46:20;;;;;;;31.83;16.70;;;-3.90;99.90;;;;;;5001736;28;20062;-76
2022/12/19 20:48:49;;;;;;;28.33;18.48;;;-3.80;99.90;;;;;;5012255;28;20064;-77
2022/12/19 20:51:18;;;;;;;20.02;14.45;;;-3.70;99.90;;;;;;5015672;28;20058;-77
2022/12/19 20:53:47;;;;;;;35.55;18.73;;;-3.80;99.90;;;;;;5005975;28;20057;-77
2022/12/19 20:56:17;;;;;;;27.50;16.52;;;-3.80;99.90;;;;;;5011473;28;20041;-77
2022/12/19 20:58:45;;;;;;;32.83;18.60;;;-3.80;99.90;;;;;;4989896;28;20272;-77
2022/12/19 21:01:16;;;;;;;24.38;16.80;;;-3.90;99.90;;;;;;4988424;28;20129;-77
2022/12/19 21:03:44;;;;;;;26.50;16.00;;;-3.90;99.90;;;;;;5002463;28;20053;-77
2022/12/19 21:06:20;;;;;;;28.77;17.20;;;-3.90;99.90;;;;;;5026436;28;20300;-77
2022/12/19 21:08:47;;;;;;;23.90;15.65;;;-4.00;99.90;;;;;;5009023;28;20037;-77
2022/12/19 21:11:15;;;;;;;25.60;14.52;;;-4.20;99.90;;;;;;5009350;28;20060;-77
2022/12/19 21:13:43;;;;;;;26.27;17.27;;;-4.40;99.90;;;;;;5023939;28;20416;-77
2022/12/19 21:16:13;;;;;;;21.20;13.45;;;-4.50;99.90;;;;;;5036122;28;20063;-77
2022/12/19 21:18:42;;;;;;;32.85;18.63;;;-4.50;99.90;;;;;;5011762;28;20049;-77
2022/12/19 21:21:15;;;;;;;33.90;15.90;;;-4.30;99.90;;;;;;5026971;28;20045;-77
2022/12/19 21:23:43;;;;;;;31.13;20.98;;;-4.10;99.90;;;;;;5026732;28;20639;-77
2022/12/19 21:26:11;;;;;;;34.47;15.52;;;-4.00;99.90;;;;;;5028466;28;20041;-77
2022/12/19 21:28:39;;;;;;;30.33;18.00;;;-4.00;99.90;;;;;;4993960;28;20433;-77
2022/12/19 21:31:15;;;;;;;25.30;16.05;;;-3.90;99.90;;;;;;5010547;28;20053;-77
2022/12/19 21:33:44;;;;;;;26.17;15.95;;;-3.80;99.90;;;;;;5027593;28;20045;-77
2022/12/19 21:36:17;;;;;;;29.65;15.50;;;-3.80;99.90;;;;;;5028405;28;20041;-77
2022/12/19 21:38:51;;;;;;;32.90;16.60;;;-3.70;99.90;;;;;;5026361;28;20057;-77
2022/12/19 21:41:22;;;;;;;29.88;18.83;;;-3.40;99.90;;;;;;5010072;28;20452;-77
2022/12/19 21:43:52;;;;;;;21.83;16.87;;;-3.30;99.90;;;;;;5027477;28;20390;-78
2022/12/19 21:46:23;;;;;;;18.55;12.77;;;-3.00;99.90;;;;;;5028608;28;20046;-77
2022/12/19 21:48:53;;;;;;;33.97;17.52;;;-2.70;99.90;;;;;;5027669;28;20044;-77
2022/12/19 21:51:24;;;;;;;19.95;12.25;;;-2.70;99.90;;;;;;5010030;28;20424;-77
2022/12/19 21:53:54;;;;;;;18.40;14.77;;;-2.70;99.90;;;;;;5008756;28;20041;-77
2022/12/19 21:56:26;;;;;;;22.27;16.17;;;-2.60;99.90;;;;;;5006449;28;20056;-77
2022/12/19 21:58:57;;;;;;;;;;;-2.30;99.90;;;;;;5017258;28;20068;-77
2022/12/19 22:01:25;;;;;;;13.90;10.07;;;-2.10;99.90;;;;;;5013978;28;19928;-77
2022/12/19 22:04:01;;;;;;;20.70;12.98;;;-2.00;99.90;;;;;;5031408;28;20048;-77
2022/12/19 22:06:31;;;;;;;17.83;11.63;;;-1.80;99.90;;;;;;5014669;28;20409;-77
2022/12/19 22:08:59;;;;;;;20.00;11.88;;;-1.60;99.90;;;;;;5030146;28;20064;-77
2022/12/19 22:11:30;;;;;;;21.73;12.30;;;-1.50;99.90;;;;;;4997915;28;20060;-77
2022/12/19 22:13:59;;;;;;;12.32;7.07;;;-1.40;99.90;;;;;;5030717;28;20060;-77
2022/12/19 22:16:27;;;;;;;13.75;9.52;;;-1.50;99.90;;;;;;5013571;28;20034;-77
2022/12/19 22:18:55;;;;;;;18.33;10.18;;;-1.40;99.90;;;;;;5031862;28;20060;-77
2022/12/19 22:21:23;;;;;;;13.82;10.82;;;-1.30;99.90;;;;;;4996670;28;20049;-77
2022/12/19 22:23:56;;;;;;;13.85;11.27;;;-1.40;99.90;;;;;;5029366;28;20058;-77
2022/12/19 22:26:29;;;;;;;16.58;10.40;;;-1.30;99.90;;;;;;5031231;28;20049;-77
2022/12/19 22:28:58;;;;;;;17.35;10.63;;;-1.30;99.90;;;;;;5014273;28;20410;-78
2022/12/19 22:31:31;;;;;;;13.20;7.47;;;-1.30;99.90;;;;;;5030995;28;20049;-78
2022/12/19 22:34:05;;;;;;;11.02;9.30;;;-1.30;99.90;;;;;;4978736;28;20659;-78
2022/12/19 22:36:34;;;;;;;14.18;9.98;;;-1.20;99.90;;;;;;4993553;28;20038;-78
2022/12/19 22:39:04;;;;;;;14.85;9.63;;;-1.20;99.90;;;;;;4992002;28;20049;-78
2022/12/19 22:41:33;;;;;;;13.98;9.52;;;-1.10;99.90;;;;;;5010500;28;20042;-77
2022/12/19 22:44:02;;;;;;;13.98;8.85;;;-1.10;99.90;;;;;;4993771;28;20650;-78
2022/12/19 22:46:33;;;;;;;21.40;13.43;;;-1.20;99.90;;;;;;5011805;28;20049;-78
2022/12/19 22:49:04;;;;;;;23.17;13.15;;;-1.10;99.90;;;;;;5011008;28;20042;-78
2022/12/19 22:51:33;;;;;;;15.95;11.48;;;-1.50;99.90;;;;;;4993767;28;20057;-78
2022/12/19 22:54:04;;;;;;;13.93;9.15;;;-1.50;99.90;;;;;;4992200;28;20042;-78
2022/12/19 22:56:33;;;;;;;19.08;8.13;;;-1.40;99.90;;;;;;4974054;28;20038;-78
2022/12/19 22:59:05;;;;;;;14.35;9.27;;;-1.30;99.90;;;;;;4974558;28;20065;-77
2022/12/19 23:01:35;;;;;;;16.67;10.93;;;-1.10;99.90;;;;;;4990907;28;20421;-78
2022/12/19 23:04:05;;;;;;;18.83;10.77;;;-0.90;99.90;;;;;;4972991;28;20042;-78
2022/12/19 23:06:35;;;;;;;12.15;9.25;;;-0.80;99.90;;;;;;4991265;28;20301;-78
2022/12/19 23:09:05;;;;;;;17.15;9.52;;;-0.70;99.90;;;;;;4972151;28;20054;-78
2022/12/19 23:11:38;;;;;;;15.73;10.30;;;-0.70;99.90;;;;;;4973581;28;20050;-78
2022/12/19 23:14:07;;;;;;;16.60;11.85;;;-0.70;99.90;;;;;;4974180;28;20046;-78
2022/12/19 23:16:35;;;;;;;16.63;9.77;;;-0.70;99.90;;;;;;4985826;28;20046;-78
2022/12/19 23:19:04;;;;;;;15.80;10.98;;;-0.50;99.90;;;;;;4973595;28;20050;-78
2022/12/19 23:21:31;;;;;;;12.90;11.60;;;-0.40;99.90;;;;;;4993048;28;20421;-78
2022/12/19 23:23:59;;;;;;;14.35;8.93;;;-0.50;99.90;;;;;;4992107;28;20414;-78
2022/12/19 23:26:34;;;;;;;12.65;9.13;;;-0.40;99.90;;;;;;4993771;28;20054;-78
2022/12/19 23:29:11;;;;;;;10.52;7.38;;;-0.40;99.90;;;;;;5009679;28;20267;-78
2022/12/19 23:31:44;;;;;;;17.50;10.05;;;-0.40;99.90;;;;;;5008259;28;20431;-78
2022/12/19 23:34:14;;;;;;;10.10;8.85;;;-0.30;99.90;;;;;;5011841;28;20045;-78
2022/12/19 23:36:43;;;;;;;15.38;9.23;;;-0.30;99.90;;;;;;5020955;28;20041;-78
2022/12/19 23:39:33;;;;;;;14.60;9.05;;;-0.30;99.90;;;;;;5009306;28;20068;-78
2022/12/19 23:42:00;;;;;;;12.85;9.20;;;-0.30;99.90;;;;;;4992006;28;20057;-78
2022/12/19 23:44:28;;;;;;;9.32;7.63;;;-0.20;99.90;;;;;;5010031;28;20486;-78
2022/12/19 23:46:56;;;;;;;21.77;8.10;;;-0.20;99.90;;;;;;5009357;28;20050;-79
2022/12/19 23:49:32;;;;;;;12.02;8.80;;;-0.30;99.90;;;;;;5010014;28;20042;-78
2022/12/19 23:52:00;;;;;;;13.23;9.05;;;-0.30;99.90;;;;;;5007710;28;20066;-78
2022/12/19 23:54:28;;;;;;;15.55;8.85;;;-0.40;99.90;;;;;;4973665;28;20062;-78
2022/12/19 23:56:56;;;;;;;17.25;9.88;;;-0.40;99.90;;;;;;4972623;28;20050;-78
2022/12/19 23:59:23;;;;;;;15.02;10.00;;;-0.50;99.90;;;;;;4973486;28;20058;-78
